Time;durP1;ratioP1;P1;durP2;ratioP2;P2;SDS_P1;SDS_P2;PMS_P1;PMS_P2;Temp;Humidity;BMP_temperature;BMP_pressure;BME280_temperature;BME280_humidity;BME280_pressure;Samples;Min_cycle;Max_cycle;Signal;HPM_P1;HPM_P2
2021/10/11 00:01:00;;;;;;;15.32;12.75;;;;;;;;;;4985976;28;20538;-73
2021/10/11 00:03:27;;;;;;;16.98;13.68;;;;;;;;;;4986701;28;20248;-73
2021/10/11 00:05:54;;;;;;;12.18;10.77;;;;;;;;;;4988432;28;20201;-73
2021/10/11 00:08:21;;;;;;;18.83;11.55;;;;;;;;;;4989395;28;20198;-74
2021/10/11 00:10:51;;;;;;;17.45;13.18;;;;;;;;;;4987645;28;20216;-73
2021/10/11 00:13:18;;;;;;;15.55;12.05;;;;;;;;;;4993917;28;20202;-74
2021/10/11 00:15:45;;;;;;;16.40;14.13;;;;;;;;;;4994593;28;20209;-73
2021/10/11 00:18:14;;;;;;;16.90;14.38;;;;;;;;;;4988440;28;20201;-73
2021/10/11 00:20:41;;;;;;;20.70;14.05;;;;;;;;;;4991494;28;20281;-74
2021/10/11 00:23:10;;;;;;;13.30;11.85;;;;;;;;;;4993519;28;20213;-74
2021/10/11 00:25:37;;;;;;;13.85;12.32;;;;;;;;;;4994396;28;20210;-74
2021/10/11 00:28:04;;;;;;;15.35;12.88;;;;;;;;;;4993662;28;20201;-74
2021/10/11 00:30:31;;;;;;;16.73;13.25;;;;;;;;;;4991202;28;20693;-74
2021/10/11 00:32:58;;;;;;;17.98;14.45;;;;;;;;;;4988977;28;20198;-75
2021/10/11 00:35:26;;;;;;;15.82;12.60;;;;;;;;;;4980794;28;20201;-74
2021/10/11 00:37:53;;;;;;;14.00;12.25;;;;;;;;;;4993640;28;20194;-74
2021/10/11 00:40:20;;;;;;;15.23;12.93;;;;;;;;;;4985124;28;20687;-74
2021/10/11 00:42:48;;;;;;;16.23;13.85;;;;;;;;;;4992786;28;20217;-74
2021/10/11 00:45:15;;;;;;;15.20;13.52;;;;;;;;;;4986786;28;20193;-75
2021/10/11 00:47:42;;;;;;;15.27;13.68;;;;;;;;;;4988089;28;20591;-74
2021/10/11 00:50:10;;;;;;;14.98;13.45;;;;;;;;;;4991997;28;20683;-74
2021/10/11 00:52:38;;;;;;;16.30;14.00;;;;;;;;;;4995315;28;20198;-76
2021/10/11 00:55:06;;;;;;;20.40;12.70;;;;;;;;;;4991618;28;20201;-75
2021/10/11 00:57:33;;;;;;;15.65;12.65;;;;;;;;;;4983929;28;20204;-74
2021/10/11 01:00:00;;;;;;;15.60;12.70;;;;;;;;;;4990775;28;20209;-77
2021/10/11 01:02:27;;;;;;;20.50;15.48;;;;;;;;;;4985787;28;20225;-74
2021/10/11 01:04:54;;;;;;;18.88;13.02;;;;;;;;;;4987268;28;20664;-73
2021/10/11 01:07:21;;;;;;;19.10;15.30;;;;;;;;;;4987852;28;20198;-75
2021/10/11 01:09:50;;;;;;;20.33;15.70;;;;;;;;;;4987690;28;20220;-74
2021/10/11 01:12:17;;;;;;;14.70;13.07;;;;;;;;;;4987626;28;20231;-74
2021/10/11 01:14:44;;;;;;;16.70;14.48;;;;;;;;;;4992379;28;20193;-74
2021/10/11 01:17:11;;;;;;;18.00;15.07;;;;;;;;;;4994267;28;20637;-74
2021/10/11 01:19:38;;;;;;;21.58;14.90;;;;;;;;;;4994594;28;20204;-75
2021/10/11 01:22:07;;;;;;;17.77;15.20;;;;;;;;;;4988311;28;20233;-74
2021/10/11 01:24:34;;;;;;;14.52;12.98;;;;;;;;;;4977563;28;20243;-75
2021/10/11 01:27:01;;;;;;;17.80;13.85;;;;;;;;;;4975560;28;20221;-76
2021/10/11 01:29:28;;;;;;;17.10;13.45;;;;;;;;;;4989129;28;20209;-74
2021/10/11 01:31:55;;;;;;;16.45;13.70;;;;;;;;;;4984589;28;20201;-75
2021/10/11 01:34:22;;;;;;;19.80;13.90;;;;;;;;;;4989456;28;20206;-75
2021/10/11 01:36:49;;;;;;;15.02;13.38;;;;;;;;;;4987639;28;20656;-75
2021/10/11 01:39:18;;;;;;;19.05;14.55;;;;;;;;;;4988664;28;20208;-74
2021/10/11 01:41:45;;;;;;;16.00;13.20;;;;;;;;;;4985245;28;20226;-74
2021/10/11 01:44:12;;;;;;;22.60;14.38;;;;;;;;;;4984575;28;20217;-74
2021/10/11 01:46:39;;;;;;;15.40;13.73;;;;;;;;;;4986060;28;20205;-75
2021/10/11 01:49:06;;;;;;;17.63;15.38;;;;;;;;;;4985520;28;20216;-74
2021/10/11 01:51:33;;;;;;;17.60;13.75;;;;;;;;;;4992397;28;20208;-76
2021/10/11 01:54:01;;;;;;;17.52;13.02;;;;;;;;;;4987989;28;20667;-74
2021/10/11 01:56:29;;;;;;;14.82;12.88;;;;;;;;;;4989007;28;20546;-74
2021/10/11 01:58:57;;;;;;;21.80;15.85;;;;;;;;;;4985127;28;20669;-74
2021/10/11 02:01:24;;;;;;;18.15;14.45;;;;;;;;;;4988423;28;20276;-74
2021/10/11 02:03:51;;;;;;;16.75;14.68;;;;;;;;;;4984594;28;20236;-74
2021/10/11 02:06:18;;;;;;;20.20;16.42;;;;;;;;;;4990745;28;20604;-74
2021/10/11 02:08:45;;;;;;;16.83;14.20;;;;;;;;;;4984876;28;20233;-73
2021/10/11 02:11:12;;;;;;;20.50;16.23;;;;;;;;;;4985013;28;20193;-75
2021/10/11 02:13:40;;;;;;;17.90;14.82;;;;;;;;;;4982423;28;20205;-73
2021/10/11 02:16:07;;;;;;;20.42;15.98;;;;;;;;;;4984696;28;20202;-74
2021/10/11 02:18:34;;;;;;;21.17;17.33;;;;;;;;;;4992351;28;20198;-75
2021/10/11 02:21:01;;;;;;;16.83;13.07;;;;;;;;;;4993873;28;20691;-74
2021/10/11 02:23:28;;;;;;;19.55;13.63;;;;;;;;;;4990203;28;20619;-74
2021/10/11 02:25:56;;;;;;;18.75;14.70;;;;;;;;;;4993525;28;20202;-74
2021/10/11 02:28:23;;;;;;;18.17;15.07;;;;;;;;;;4990822;28;20200;-75
2021/10/11 02:30:51;;;;;;;17.73;13.85;;;;;;;;;;4978422;28;20226;-74
2021/10/11 02:33:18;;;;;;;16.75;13.20;;;;;;;;;;4993287;28;20649;-74
2021/10/11 02:35:45;;;;;;;18.10;14.45;;;;;;;;;;4993479;28;20560;-75
2021/10/11 02:38:12;;;;;;;14.60;12.65;;;;;;;;;;4992858;28;20565;-74
2021/10/11 02:40:40;;;;;;;14.68;13.13;;;;;;;;;;4993119;28;20197;-74
2021/10/11 02:43:07;;;;;;;15.45;12.20;;;;;;;;;;4992462;28;20945;-76
2021/10/11 02:45:34;;;;;;;16.15;13.93;;;;;;;;;;4989873;28;20194;-76
2021/10/11 02:48:05;;;;;;;13.75;12.35;;;;;;;;;;4986649;28;20197;-76
2021/10/11 02:50:32;;;;;;;15.15;12.20;;;;;;;;;;4978130;28;20209;-76
2021/10/11 02:52:59;;;;;;;24.70;14.68;;;;;;;;;;4989571;28;20198;-77
2021/10/11 02:55:26;;;;;;;13.77;11.88;;;;;;;;;;4985666;28;20565;-77
2021/10/11 02:57:53;;;;;;;16.77;13.93;;;;;;;;;;4982119;28;20197;-78
2021/10/11 03:00:20;;;;;;;12.93;11.52;;;;;;;;;;4989183;28;20197;-78
2021/10/11 03:02:47;;;;;;;14.85;13.25;;;;;;;;;;4974020;28;20609;-78
2021/10/11 03:05:15;;;;;;;13.60;10.35;;;;;;;;;;4981020;28;20202;-78
2021/10/11 03:07:42;;;;;;;14.60;11.27;;;;;;;;;;4990389;28;20569;-78
2021/10/11 03:10:10;;;;;;;12.90;11.02;;;;;;;;;;4988774;28;20204;-77
2021/10/11 03:12:37;;;;;;;15.57;12.73;;;;;;;;;;4988823;28;20208;-78
2021/10/11 03:15:04;;;;;;;10.40;8.90;;;;;;;;;;4989467;28;20661;-78
2021/10/11 03:17:31;;;;;;;15.30;13.10;;;;;;;;;;4990252;28;20198;-77
2021/10/11 03:19:58;;;;;;;12.63;10.25;;;;;;;;;;4981463;28;20197;-78
2021/10/11 03:22:27;;;;;;;11.90;10.70;;;;;;;;;;4990416;28;20218;-78
2021/10/11 03:24:55;;;;;;;12.35;9.50;;;;;;;;;;4974577;28;20218;-77
2021/10/11 03:27:22;;;;;;;12.40;11.10;;;;;;;;;;4986088;28;20197;-78
2021/10/11 03:29:49;;;;;;;13.52;12.05;;;;;;;;;;4981481;28;20585;-78
2021/10/11 03:32:16;;;;;;;11.90;10.32;;;;;;;;;;4989613;28;20213;-78
2021/10/11 03:34:43;;;;;;;11.80;9.88;;;;;;;;;;4985958;28;20198;-77
2021/10/11 03:37:10;;;;;;;10.73;8.70;;;;;;;;;;4984626;28;20200;-77
2021/10/11 03:39:38;;;;;;;12.10;9.70;;;;;;;;;;4983236;28;20208;-78
2021/10/11 03:42:05;;;;;;;12.43;9.50;;;;;;;;;;4985227;28;20241;-77
2021/10/11 03:44:32;;;;;;;13.43;8.88;;;;;;;;;;4986137;28;20217;-77
2021/10/11 03:46:59;;;;;;;9.48;8.07;;;;;;;;;;4984381;28;20649;-77
2021/10/11 03:49:26;;;;;;;9.65;8.70;;;;;;;;;;4987227;28;20572;-76
2021/10/11 03:51:53;;;;;;;12.90;10.30;;;;;;;;;;4990681;28;20209;-78
2021/10/11 03:54:20;;;;;;;10.77;9.48;;;;;;;;;;4985601;28;20206;-76
2021/10/11 03:56:49;;;;;;;9.90;8.65;;;;;;;;;;4981320;28;20645;-77
2021/10/11 03:59:16;;;;;;;10.18;9.15;;;;;;;;;;4983291;28;20217;-78
2021/10/11 04:01:43;;;;;;;9.25;8.02;;;;;;;;;;4981265;28;20228;-77
2021/10/11 04:04:11;;;;;;;10.90;9.02;;;;;;;;;;4982088;28;20228;-76
2021/10/11 04:06:39;;;;;;;10.02;8.68;;;;;;;;;;4982861;28;20209;-77
2021/10/11 04:09:06;;;;;;;10.05;9.05;;;;;;;;;;4982800;28;20198;-77
2021/10/11 04:11:33;;;;;;;13.15;10.35;;;;;;;;;;4982500;28;20193;-76
2021/10/11 04:14:02;;;;;;;9.05;8.13;;;;;;;;;;4980412;28;20193;-78
2021/10/11 04:16:29;;;;;;;12.57;8.38;;;;;;;;;;4982935;28;20206;-77
2021/10/11 04:18:56;;;;;;;10.23;8.88;;;;;;;;;;4985252;28;20201;-77
2021/10/11 04:21:23;;;;;;;8.25;7.45;;;;;;;;;;4992004;28;20560;-77
2021/10/11 04:23:50;;;;;;;11.65;10.55;;;;;;;;;;4981801;28;20222;-77
2021/10/11 04:26:17;;;;;;;9.98;8.40;;;;;;;;;;4981675;28;20197;-77
2021/10/11 04:28:44;;;;;;;8.32;7.50;;;;;;;;;;4990847;28;20216;-77
2021/10/11 04:31:13;;;;;;;8.10;7.15;;;;;;;;;;4991748;28;20225;-77
2021/10/11 04:33:40;;;;;;;9.38;8.38;;;;;;;;;;4990276;28;20198;-77
2021/10/11 04:36:07;;;;;;;10.65;8.32;;;;;;;;;;4992132;28;20212;-78
2021/10/11 04:38:34;;;;;;;8.77;7.80;;;;;;;;;;4990442;28;20206;-78
2021/10/11 04:41:01;;;;;;;9.50;7.75;;;;;;;;;;4992324;28;20549;-77
2021/10/11 04:43:29;;;;;;;8.80;7.85;;;;;;;;;;4990863;28;20221;-77
2021/10/11 04:45:56;;;;;;;9.07;7.72;;;;;;;;;;4982900;28;20541;-77
2021/10/11 04:48:24;;;;;;;10.55;8.10;;;;;;;;;;4982589;28;20202;-77
2021/10/11 04:50:51;;;;;;;8.15;7.35;;;;;;;;;;4983688;28;20202;-78
2021/10/11 04:53:18;;;;;;;9.27;7.50;;;;;;;;;;4981954;28;20735;-77
2021/10/11 04:55:45;;;;;;;9.07;8.18;;;;;;;;;;4993375;28;20194;-78
2021/10/11 04:58:12;;;;;;;8.00;7.00;;;;;;;;;;4986355;28;20205;-76
2021/10/11 05:00:39;;;;;;;9.02;8.07;;;;;;;;;;4991053;28;20209;-76
2021/10/11 05:03:07;;;;;;;9.05;7.60;;;;;;;;;;4992330;28;20209;-75
2021/10/11 05:05:35;;;;;;;8.60;7.65;;;;;;;;;;4992991;28;20205;-75
2021/10/11 05:08:02;;;;;;;7.53;6.45;;;;;;;;;;4987468;28;20653;-75
2021/10/11 05:10:30;;;;;;;7.07;6.07;;;;;;;;;;4989679;28;20208;-75
2021/10/11 05:12:57;;;;;;;9.93;7.95;;;;;;;;;;4988580;28;20201;-76
2021/10/11 05:15:24;;;;;;;9.10;8.20;;;;;;;;;;4990932;28;20659;-76
2021/10/11 05:17:51;;;;;;;8.90;7.35;;;;;;;;;;4991302;28;20673;-76
2021/10/11 05:20:18;;;;;;;6.85;6.15;;;;;;;;;;4989364;28;20233;-76
2021/10/11 05:22:47;;;;;;;8.30;7.43;;;;;;;;;;4993621;28;20649;-76
2021/10/11 05:25:14;;;;;;;8.55;7.22;;;;;;;;;;4984819;28;20232;-77
2021/10/11 05:27:41;;;;;;;7.35;6.65;;;;;;;;;;4986448;28;20194;-75
2021/10/11 05:30:08;;;;;;;7.80;7.10;;;;;;;;;;4975235;28;20237;-76
2021/10/11 05:32:35;;;;;;;6.78;6.13;;;;;;;;;;4987745;28;20202;-76
2021/10/11 05:35:03;;;;;;;7.00;6.30;;;;;;;;;;4984608;28;20197;-76
2021/10/11 05:37:30;;;;;;;6.50;5.88;;;;;;;;;;4989318;28;20205;-76
2021/10/11 05:39:59;;;;;;;6.88;6.10;;;;;;;;;;4993283;28;20236;-77
2021/10/11 05:42:26;;;;;;;7.15;6.45;;;;;;;;;;4994342;28;20201;-76
2021/10/11 05:44:53;;;;;;;9.18;6.43;;;;;;;;;;4990707;28;20268;-76
2021/10/11 05:47:20;;;;;;;8.18;6.00;;;;;;;;;;4992626;28;20202;-76
2021/10/11 05:49:47;;;;;;;8.55;6.55;;;;;;;;;;4979571;28;20198;-75
2021/10/11 05:52:14;;;;;;;5.90;5.40;;;;;;;;;;4991076;28;20194;-76
2021/10/11 05:54:42;;;;;;;6.63;6.03;;;;;;;;;;4984411;28;20194;-76
2021/10/11 05:57:10;;;;;;;6.90;6.22;;;;;;;;;;4996013;28;20232;-75
2021/10/11 05:59:37;;;;;;;6.20;5.40;;;;;;;;;;4993659;28;20481;-75
2021/10/11 06:02:05;;;;;;;6.88;5.57;;;;;;;;;;4992654;28;20194;-75
2021/10/11 06:04:32;;;;;;;9.30;5.90;;;;;;;;;;4976975;28;20217;-76
2021/10/11 06:06:59;;;;;;;7.07;6.03;;;;;;;;;;4973714;28;20205;-75
2021/10/11 06:09:26;;;;;;;5.78;5.00;;;;;;;;;;4985299;28;20590;-76
2021/10/11 06:11:53;;;;;;;8.80;6.32;;;;;;;;;;4985055;28;20205;-76
2021/10/11 06:14:21;;;;;;;6.43;5.65;;;;;;;;;;4984838;28;21734;-75
2021/10/11 06:16:48;;;;;;;5.78;5.15;;;;;;;;;;4984724;28;20659;-75
2021/10/11 06:19:16;;;;;;;6.03;4.95;;;;;;;;;;4983103;28;20244;-75
2021/10/11 06:21:43;;;;;;;5.15;4.65;;;;;;;;;;4984675;28;20288;-75
2021/10/11 06:24:11;;;;;;;6.57;5.88;;;;;;;;;;4984495;28;20531;-75
2021/10/11 06:26:38;;;;;;;5.70;5.00;;;;;;;;;;4988170;28;20731;-76
2021/10/11 06:29:05;;;;;;;6.55;5.15;;;;;;;;;;4990053;28;20205;-75
2021/10/11 06:31:34;;;;;;;5.97;5.32;;;;;;;;;;4985249;28;20684;-75
2021/10/11 06:34:01;;;;;;;5.15;4.63;;;;;;;;;;4990704;28;20649;-75
2021/10/11 06:36:31;;;;;;;5.88;5.28;;;;;;;;;;4992263;28;20201;-76
2021/10/11 06:38:58;;;;;;;4.97;4.57;;;;;;;;;;4985280;28;20193;-75
2021/10/11 06:41:25;;;;;;;5.53;4.97;;;;;;;;;;4982492;28;20206;-76
2021/10/11 06:43:52;;;;;;;5.65;4.90;;;;;;;;;;4982065;28;20700;-76
2021/10/11 06:46:19;;;;;;;5.15;4.47;;;;;;;;;;4981790;28;20684;-76
2021/10/11 06:48:47;;;;;;;5.45;4.88;;;;;;;;;;4984164;28;20205;-75
2021/10/11 06:51:14;;;;;;;6.10;5.00;;;;;;;;;;4984058;28;20197;-77
2021/10/11 06:53:42;;;;;;;8.32;5.88;;;;;;;;;;4985522;28;20213;-76
2021/10/11 06:56:09;;;;;;;6.00;4.63;;;;;;;;;;4991068;28;20228;-76
2021/10/11 06:58:36;;;;;;;7.65;5.90;;;;;;;;;;4992776;28;20316;-76
2021/10/11 07:01:03;;;;;;;7.07;5.05;;;;;;;;;;4988147;28;20685;-76
2021/10/11 07:03:30;;;;;;;5.82;4.28;;;;;;;;;;4987005;28;20209;-76
2021/10/11 07:06:02;;;;;;;5.82;5.05;;;;;;;;;;4988701;28;20735;-76
2021/10/11 07:08:29;;;;;;;9.88;5.10;;;;;;;;;;4983723;28;20416;-76
2021/10/11 07:10:56;;;;;;;4.85;4.45;;;;;;;;;;4976622;28;20189;-76
2021/10/11 07:13:24;;;;;;;7.47;4.55;;;;;;;;;;4986898;28;20190;-76
2021/10/11 07:15:51;;;;;;;6.90;4.20;;;;;;;;;;4984282;28;20208;-76
2021/10/11 07:18:18;;;;;;;6.80;4.20;;;;;;;;;;4987149;28;20228;-75
2021/10/11 07:20:45;;;;;;;6.20;3.72;;;;;;;;;;4991258;28;20197;-76
2021/10/11 07:23:14;;;;;;;6.35;4.93;;;;;;;;;;4984022;28;20230;-75
2021/10/11 07:25:42;;;;;;;3.60;3.10;;;;;;;;;;4987070;28;20232;-75
2021/10/11 07:28:09;;;;;;;5.15;4.53;;;;;;;;;;4991920;28;20197;-75
2021/10/11 07:30:36;;;;;;;5.13;4.15;;;;;;;;;;4991279;28;20344;-75
2021/10/11 07:33:05;;;;;;;4.95;4.47;;;;;;;;;;4977149;28;20207;-75
2021/10/11 07:35:32;;;;;;;3.78;3.42;;;;;;;;;;4982461;28;20197;-75
2021/10/11 07:38:00;;;;;;;4.60;4.07;;;;;;;;;;4989033;28;20223;-75
2021/10/11 07:40:28;;;;;;;3.92;3.53;;;;;;;;;;4979057;28;20201;-75
2021/10/11 07:42:55;;;;;;;4.45;3.30;;;;;;;;;;4982608;28;20197;-75
2021/10/11 07:45:23;;;;;;;6.03;3.55;;;;;;;;;;4982577;28;20688;-75
2021/10/11 07:47:50;;;;;;;4.82;3.75;;;;;;;;;;4981674;28;20201;-74
2021/10/11 07:50:17;;;;;;;4.53;3.00;;;;;;;;;;4984342;28;20197;-77
2021/10/11 07:52:44;;;;;;;3.35;3.05;;;;;;;;;;4983427;28;20224;-77
2021/10/11 07:55:12;;;;;;;4.15;3.47;;;;;;;;;;4983226;28;20205;-76
2021/10/11 07:57:40;;;;;;;7.28;3.65;;;;;;;;;;4985418;28;20201;-77
2021/10/11 08:00:08;;;;;;;3.95;3.30;;;;;;;;;;4990385;28;20204;-77
2021/10/11 08:02:35;;;;;;;6.30;3.55;;;;;;;;;;4986508;28;20205;-75
2021/10/11 08:05:02;;;;;;;4.03;3.40;;;;;;;;;;4988944;28;20216;-76
2021/10/11 08:07:29;;;;;;;6.35;3.05;;;;;;;;;;4991075;28;20213;-75
2021/10/11 08:09:56;;;;;;;9.27;3.35;;;;;;;;;;4986941;28;20206;-75
2021/10/11 08:12:24;;;;;;;8.15;3.15;;;;;;;;;;4989171;28;20274;-75
2021/10/11 08:14:52;;;;;;;3.30;2.83;;;;;;;;;;4987509;28;20202;-75
2021/10/11 08:17:19;;;;;;;4.03;2.95;;;;;;;;;;4988661;28;20202;-76
2021/10/11 08:19:46;;;;;;;5.05;2.92;;;;;;;;;;4990311;28;20205;-76
2021/10/11 08:22:13;;;;;;;7.03;3.03;;;;;;;;;;4988513;28;20197;-75
2021/10/11 08:24:40;;;;;;;3.83;2.75;;;;;;;;;;4984226;28;20688;-76
2021/10/11 08:27:07;;;;;;;6.50;2.80;;;;;;;;;;4983306;28;20205;-76
2021/10/11 08:29:35;;;;;;;6.55;2.85;;;;;;;;;;4986086;28;20202;-77
2021/10/11 08:32:03;;;;;;;3.50;2.78;;;;;;;;;;4991443;28;20595;-77
2021/10/11 08:34:30;;;;;;;2.95;2.60;;;;;;;;;;4985324;28;20775;-78
2021/10/11 08:36:57;;;;;;;3.92;2.80;;;;;;;;;;4986986;28;20210;-75
2021/10/11 08:39:24;;;;;;;2.90;2.60;;;;;;;;;;4985113;28;20236;-75
2021/10/11 08:41:52;;;;;;;4.88;2.55;;;;;;;;;;4992466;28;20668;-76
2021/10/11 08:44:19;;;;;;;2.53;2.33;;;;;;;;;;4992102;28;20236;-75
2021/10/11 08:46:46;;;;;;;4.30;2.63;;;;;;;;;;4990899;28;20209;-75
2021/10/11 08:49:14;;;;;;;2.83;2.58;;;;;;;;;;4992764;28;20240;-76
2021/10/11 08:51:41;;;;;;;2.90;2.45;;;;;;;;;;4987500;28;20697;-75
2021/10/11 08:54:09;;;;;;;3.25;1.90;;;;;;;;;;4993922;28;20286;-76
2021/10/11 08:56:36;;;;;;;2.97;2.50;;;;;;;;;;4993037;28;20202;-75
2021/10/11 08:59:03;;;;;;;3.85;2.22;;;;;;;;;;4991457;28;20197;-76
2021/10/11 09:01:30;;;;;;;2.00;1.80;;;;;;;;;;4990144;28;20208;-76
2021/10/11 09:03:57;;;;;;;3.38;2.25;;;;;;;;;;4993472;28;20202;-76
2021/10/11 09:06:25;;;;;;;3.35;3.05;;;;;;;;;;4993858;28;20221;-76
2021/10/11 09:08:52;;;;;;;2.20;2.00;;;;;;;;;;4993167;28;20201;-76
2021/10/11 09:11:19;;;;;;;4.00;1.98;;;;;;;;;;4990437;28;20197;-76
2021/10/11 09:13:51;;;;;;;4.70;2.20;;;;;;;;;;4993337;28;20201;-76
2021/10/11 09:16:23;;;;;;;3.05;2.20;;;;;;;;;;4992098;28;20251;-75
2021/10/11 09:18:53;;;;;;;3.10;2.45;;;;;;;;;;4990568;28;20193;-79
2021/10/11 09:21:31;;;;;;;3.35;2.28;;;;;;;;;;4993249;28;20194;-76
2021/10/11 09:24:03;;;;;;;2.10;1.60;;;;;;;;;;4984967;28;20231;-76
2021/10/11 09:26:41;;;;;;;3.20;1.77;;;;;;;;;;4991831;28;20699;-78
2021/10/11 09:29:08;;;;;;;3.20;2.42;;;;;;;;;;4994419;28;20190;-76
2021/10/11 09:31:39;;;;;;;3.97;2.35;;;;;;;;;;4992826;28;20225;-77
2021/10/11 09:34:07;;;;;;;2.08;1.77;;;;;;;;;;4991966;28;20634;-76
2021/10/11 09:36:35;;;;;;;3.17;2.03;;;;;;;;;;4992935;28;20268;-76
2021/10/11 09:39:03;;;;;;;2.03;1.83;;;;;;;;;;4992611;28;20661;-76
2021/10/11 09:41:30;;;;;;;3.05;2.47;;;;;;;;;;4992050;28;20197;-76
2021/10/11 09:43:57;;;;;;;2.55;2.15;;;;;;;;;;4993406;28;20201;-76
2021/10/11 09:46:27;;;;;;;3.40;2.22;;;;;;;;;;4991912;28;20712;-76
2021/10/11 09:48:55;;;;;;;3.47;2.25;;;;;;;;;;4991182;28;20193;-76
2021/10/11 09:51:22;;;;;;;4.65;1.80;;;;;;;;;;4992507;28;20201;-76
2021/10/11 09:53:52;;;;;;;2.70;2.30;;;;;;;;;;4989794;28;20248;-76
2021/10/11 09:56:19;;;;;;;3.22;1.92;;;;;;;;;;4992997;28;20668;-76
2021/10/11 09:58:46;;;;;;;6.18;1.80;;;;;;;;;;4993281;28;20211;-76
2021/10/11 10:01:13;;;;;;;2.38;1.65;;;;;;;;;;4990912;28;20198;-76
2021/10/11 10:03:40;;;;;;;2.80;1.88;;;;;;;;;;4992931;28;20249;-76
2021/10/11 10:06:09;;;;;;;4.80;1.83;;;;;;;;;;4990040;28;20224;-76
2021/10/11 10:08:37;;;;;;;1.95;1.60;;;;;;;;;;4989371;28;20230;-77
2021/10/11 10:11:06;;;;;;;3.20;1.60;;;;;;;;;;4990834;28;20194;-77
2021/10/11 10:13:36;;;;;;;5.72;1.40;;;;;;;;;;4992620;28;20585;-75
2021/10/11 10:16:08;;;;;;;2.55;2.35;;;;;;;;;;4988613;28;20205;-76
2021/10/11 10:18:38;;;;;;;6.38;2.40;;;;;;;;;;4992419;28;20217;-76
2021/10/11 10:21:06;;;;;;;4.50;1.40;;;;;;;;;;4992108;28;20197;-77
2021/10/11 10:23:34;;;;;;;3.40;1.83;;;;;;;;;;4987658;28;20237;-77
2021/10/11 10:26:02;;;;;;;4.32;1.60;;;;;;;;;;4992660;28;20688;-77
2021/10/11 10:28:41;;;;;;;2.85;1.67;;;;;;;;;;4989630;28;20216;-77
2021/10/11 10:31:09;;;;;;;5.10;2.15;;;;;;;;;;4998548;28;20217;-77
2021/10/11 10:33:37;;;;;;;3.05;1.33;;;;;;;;;;4996536;28;20193;-77
2021/10/11 10:36:05;;;;;;;2.90;1.55;;;;;;;;;;4990404;28;20204;-76
2021/10/11 10:38:32;;;;;;;3.30;1.75;;;;;;;;;;4989596;28;20565;-77
2021/10/11 10:53:16;;;;;;;4.50;1.60;;;;;;;;;;4977998;28;20266;-77
2021/10/11 10:55:43;;;;;;;1.65;1.40;;;;;;;;;;4990170;28;20194;-78
2021/10/11 10:58:12;;;;;;;3.65;1.70;;;;;;;;;;4989512;28;20653;-78
2021/10/11 11:00:40;;;;;;;6.15;1.30;;;;;;;;;;4987184;28;20244;-76
2021/10/11 11:03:10;;;;;;;4.72;1.92;;;;;;;;;;4992150;28;20198;-76
2021/10/11 11:05:38;;;;;;;1.55;1.08;;;;;;;;;;4980946;28;20214;-76
2021/10/11 11:08:05;;;;;;;3.65;1.50;;;;;;;;;;4983773;28;20205;-76
2021/10/11 11:10:35;;;;;;;3.17;1.65;;;;;;;;;;4977208;28;20205;-76
2021/10/11 11:13:03;;;;;;;2.85;1.50;;;;;;;;;;4975817;28;20238;-76
2021/10/11 11:15:31;;;;;;;7.93;1.40;;;;;;;;;;4988286;28;20197;-77
2021/10/11 11:17:59;;;;;;;4.30;1.55;;;;;;;;;;4988825;28;20205;-76
2021/10/11 11:20:27;;;;;;;4.93;2.38;;;;;;;;;;4988553;28;20205;-77
2021/10/11 11:22:55;;;;;;;5.85;1.83;;;;;;;;;;4989480;28;20240;-78
2021/10/11 11:25:26;;;;;;;3.75;1.30;;;;;;;;;;4989431;28;20226;-77
2021/10/11 11:27:56;;;;;;;4.32;1.95;;;;;;;;;;4989777;28;20251;-76
2021/10/11 11:30:23;;;;;;;1.60;1.20;;;;;;;;;;4978084;28;20705;-76
2021/10/11 11:32:52;;;;;;;3.08;1.50;;;;;;;;;;4978824;28;20220;-77
2021/10/11 11:35:21;;;;;;;2.90;1.63;;;;;;;;;;4990818;28;20672;-75
2021/10/11 11:37:48;;;;;;;3.47;1.30;;;;;;;;;;4983573;28;20210;-76
2021/10/11 11:40:17;;;;;;;2.00;1.50;;;;;;;;;;4992472;28;20215;-76
2021/10/11 11:42:45;;;;;;;5.15;1.52;;;;;;;;;;4991885;28;20205;-78
2021/10/11 11:45:13;;;;;;;2.10;1.25;;;;;;;;;;4988976;28;20660;-79
2021/10/11 11:47:40;;;;;;;4.72;1.95;;;;;;;;;;4991073;28;20197;-77
2021/10/11 11:50:17;;;;;;;2.20;1.40;;;;;;;;;;4992311;28;20194;-77
2021/10/11 11:52:47;;;;;;;4.18;1.65;;;;;;;;;;4982943;28;20248;-78
2021/10/11 11:55:14;;;;;;;6.88;1.50;;;;;;;;;;4981812;28;20194;-77
2021/10/11 11:57:41;;;;;;;2.80;1.55;;;;;;;;;;4987687;28;20256;-77
2021/10/11 12:00:09;;;;;;;5.45;1.70;;;;;;;;;;4991566;28;20647;-77
2021/10/11 12:02:38;;;;;;;2.15;1.75;;;;;;;;;;4989647;28;20205;-77
2021/10/11 12:05:06;;;;;;;4.32;1.52;;;;;;;;;;4993266;28;20272;-77
2021/10/11 12:07:33;;;;;;;4.13;1.55;;;;;;;;;;4991224;28;20210;-78
2021/10/11 12:10:00;;;;;;;7.35;1.30;;;;;;;;;;4995900;28;20194;-76
2021/10/11 12:12:33;;;;;;;1.77;1.30;;;;;;;;;;4995291;28;20197;-78
2021/10/11 12:15:00;;;;;;;4.63;1.52;;;;;;;;;;4994031;28;20700;-75
2021/10/11 12:17:31;;;;;;;2.35;1.48;;;;;;;;;;4994110;28;20295;-75
2021/10/11 12:20:00;;;;;;;3.72;1.20;;;;;;;;;;4993825;28;20679;-75
2021/10/11 12:22:31;;;;;;;5.22;3.00;;;;;;;;;;4996304;28;20252;-74
2021/10/11 12:24:59;;;;;;;5.20;1.60;;;;;;;;;;4994634;28;20597;-75
2021/10/11 12:27:27;;;;;;;4.40;1.50;;;;;;;;;;4991025;28;20685;-75
2021/10/11 12:29:54;;;;;;;2.60;1.55;;;;;;;;;;4995733;28;20729;-77
2021/10/11 12:32:29;;;;;;;5.70;1.70;;;;;;;;;;4992942;28;20471;-77
2021/10/11 12:34:57;;;;;;;6.20;1.65;;;;;;;;;;4994685;28;20204;-76
2021/10/11 12:37:25;;;;;;;4.65;1.58;;;;;;;;;;4990400;28;20227;-77
2021/10/11 12:39:57;;;;;;;5.50;2.10;;;;;;;;;;4994986;28;20196;-78
2021/10/11 12:42:25;;;;;;;6.78;1.80;;;;;;;;;;4981747;28;20201;-76
2021/10/11 12:44:54;;;;;;;10.40;1.60;;;;;;;;;;4988748;28;20194;-77
2021/10/11 12:47:25;;;;;;;2.67;1.67;;;;;;;;;;4994742;28;20225;-76
2021/10/11 12:49:55;;;;;;;3.95;1.60;;;;;;;;;;4979263;28;20200;-76
2021/10/11 12:52:33;;;;;;;7.07;1.70;;;;;;;;;;4991971;28;20289;-76
2021/10/11 12:55:10;;;;;;;3.88;1.30;;;;;;;;;;4992842;28;20236;-76
2021/10/11 12:57:38;;;;;;;3.88;1.40;;;;;;;;;;4995179;28;20244;-76
2021/10/11 13:00:07;;;;;;;6.35;1.70;;;;;;;;;;5012065;28;20411;-75
2021/10/11 13:02:34;;;;;;;2.55;1.00;;;;;;;;;;4991150;28;20197;-77
2021/10/11 13:05:01;;;;;;;2.95;1.25;;;;;;;;;;4990754;28;20202;-76
2021/10/11 13:07:28;;;;;;;3.20;1.60;;;;;;;;;;4987347;28;20593;-78
2021/10/11 13:09:57;;;;;;;2.53;1.50;;;;;;;;;;4980142;28;20209;-77
2021/10/11 13:12:24;;;;;;;5.45;1.40;;;;;;;;;;4991739;28;20218;-77
2021/10/11 13:14:51;;;;;;;3.28;1.58;;;;;;;;;;4994620;28;20669;-77
2021/10/11 13:17:18;;;;;;;6.22;1.70;;;;;;;;;;4994005;28;20197;-77
2021/10/11 13:19:45;;;;;;;3.83;1.40;;;;;;;;;;4993575;28;20197;-77
2021/10/11 13:22:12;;;;;;;4.35;1.40;;;;;;;;;;4990512;28;20213;-77
2021/10/11 13:24:39;;;;;;;3.97;1.20;;;;;;;;;;4993675;28;20209;-76
2021/10/11 13:27:08;;;;;;;2.42;1.20;;;;;;;;;;4991826;28;20221;-77
2021/10/11 13:32:56;;;;;;;2.03;1.05;;;;;;;;;;4993246;28;20328;-77
2021/10/11 14:27:57;;;;;;;2.78;1.00;;;;;;;;;;4992708;28;20227;-78
2021/10/11 14:30:29;;;;;;;5.07;1.67;;;;;;;;;;4991034;28;20225;-79
2021/10/11 14:33:27;;;;;;;1.10;0.80;;;;;;;;;;4992356;28;20279;-78
2021/10/11 15:58:27;;;;;;;2.03;1.15;;;;;;;;;;4987186;28;20256;-77
2021/10/11 16:01:02;;;;;;;2.80;1.42;;;;;;;;;;4990408;28;20197;-76
2021/10/11 16:03:32;;;;;;;1.48;1.02;;;;;;;;;;4987824;28;20200;-76
2021/10/11 16:06:00;;;;;;;1.63;1.05;;;;;;;;;;4991427;28;20209;-78
2021/10/11 16:08:27;;;;;;;2.92;1.20;;;;;;;;;;4989483;28;20621;-78
2021/10/11 16:10:56;;;;;;;2.65;1.10;;;;;;;;;;4990020;28;20569;-78
2021/10/11 16:13:23;;;;;;;1.30;0.90;;;;;;;;;;4989926;28;20201;-78
2021/10/11 16:15:50;;;;;;;1.48;1.10;;;;;;;;;;4988955;28;20225;-77
2021/10/11 16:18:17;;;;;;;1.45;1.10;;;;;;;;;;4988021;28;20204;-77
2021/10/11 16:20:44;;;;;;;2.90;1.00;;;;;;;;;;4989636;28;20202;-78
2021/10/11 16:23:12;;;;;;;1.88;0.93;;;;;;;;;;4988350;28;20202;-78
2021/10/11 16:25:39;;;;;;;1.35;0.80;;;;;;;;;;4990991;28;20946;-78
2021/10/11 16:28:07;;;;;;;1.20;1.10;;;;;;;;;;4991838;28;20225;-77
2021/10/11 16:30:35;;;;;;;1.70;1.00;;;;;;;;;;4985025;28;20221;-78
2021/10/11 16:33:02;;;;;;;2.03;1.00;;;;;;;;;;4991008;28;20194;-77
2021/10/11 16:35:29;;;;;;;2.10;1.00;;;;;;;;;;4991688;28;20653;-79
2021/10/11 16:37:56;;;;;;;1.55;1.08;;;;;;;;;;4987054;28;20240;-79
2021/10/11 16:40:23;;;;;;;1.85;0.90;;;;;;;;;;4990101;28;20735;-78
2021/10/11 16:42:50;;;;;;;2.67;1.25;;;;;;;;;;4989361;28;20252;-78
2021/10/11 16:45:18;;;;;;;1.35;1.00;;;;;;;;;;4991157;28;20232;-78
2021/10/11 16:47:47;;;;;;;1.63;1.00;;;;;;;;;;4988167;28;20214;-78
2021/10/11 16:50:15;;;;;;;2.00;1.40;;;;;;;;;;4980028;28;20603;-78
2021/10/11 16:52:42;;;;;;;1.17;0.90;;;;;;;;;;4989836;28;20209;-78
2021/10/11 16:55:10;;;;;;;3.22;1.45;;;;;;;;;;4990347;28;20197;-78
2021/10/11 16:57:41;;;;;;;2.90;1.52;;;;;;;;;;4990747;28;20333;-78
2021/10/11 17:00:10;;;;;;;3.35;1.27;;;;;;;;;;4993944;28;20205;-77
2021/10/11 17:02:39;;;;;;;3.63;1.30;;;;;;;;;;4994693;28;20740;-76
2021/10/11 17:05:06;;;;;;;3.75;1.25;;;;;;;;;;4994479;28;20206;-78
2021/10/11 17:07:33;;;;;;;1.80;1.15;;;;;;;;;;4991866;28;20225;-78
2021/10/11 17:10:00;;;;;;;2.90;1.40;;;;;;;;;;4994650;28;20198;-77